Time;durP1;ratioP1;P1;durP2;ratioP2;P2;SDS_P1;SDS_P2;PMS_P1;PMS_P2;Temp;Humidity;BMP_temperature;BMP_pressure;BME280_temperature;BME280_humidity;BME280_pressure;Samples;Min_cycle;Max_cycle;Signal;HPM_P1;HPM_P2
2022/01/09 00:00:43;;;;;;;;;;;;;;;14.10;67.67;98493.88;1056725;28;1806;-57
2022/01/09 00:01:33;;;;;;;;;;;;;;;14.09;67.57;98492.22;1054863;28;949;-54
2022/01/09 00:02:24;;;;;;;;;;;;;;;14.09;67.35;98494.06;1054758;28;818;-55
2022/01/09 00:03:14;;;;;;;;;;;;;;;14.07;67.92;98491.56;1054843;28;684;-54
2022/01/09 00:04:05;;;;;;;;;;;;;;;14.06;67.51;98495.25;1054960;28;697;-55
2022/01/09 00:04:55;;;;;;;;;;;;;;;14.05;67.58;98495.44;1054918;28;725;-56
2022/01/09 00:05:45;;;;;;;;;;;;;;;14.04;67.45;98499.94;1054784;28;856;-56
2022/01/09 00:06:36;;;;;;;;;;;;;;;14.04;67.37;98505.31;1054846;28;743;-53
2022/01/09 00:07:26;;;;;;;;;;;;;;;14.04;67.47;98510.66;1054833;28;794;-55
2022/01/09 00:08:16;;;;;;;;;;;;;;;14.04;68.05;98513.34;1053041;28;762;-55
2022/01/09 00:09:07;;;;;;;;;;;;;;;14.02;67.69;98509.16;1054320;28;641;-56
2022/01/09 00:09:57;;;;;;;;;;;;;;;14.01;67.70;98512.84;1054096;28;893;-53
2022/01/09 00:10:50;;;;;;;;;;;;;;;14.00;68.08;98509.34;1054837;28;1255;-54
2022/01/09 00:11:40;;;;;;;;;;;;;;;13.99;68.26;98507.69;1053817;28;2000;-55
2022/01/09 00:12:31;;;;;;;;;;;;;;;13.99;68.01;98510.34;1054304;28;684;-54
2022/01/09 00:13:21;;;;;;;;;;;;;;;13.97;67.51;98515.09;1054808;28;734;-54
2022/01/09 00:14:11;;;;;;;;;;;;;;;13.97;67.46;98504.38;1054721;28;1039;-55
2022/01/09 00:15:02;;;;;;;;;;;;;;;13.98;67.49;98514.03;1054279;28;1970;-54
2022/01/09 00:15:52;;;;;;;;;;;;;;;13.97;68.24;98517.75;1054135;28;766;-55
2022/01/09 00:16:43;;;;;;;;;;;;;;;13.98;67.74;98511.38;1054920;28;712;-54
2022/01/09 00:17:33;;;;;;;;;;;;;;;13.96;68.41;98516.09;1054736;28;710;-54
2022/01/09 00:18:24;;;;;;;;;;;;;;;13.97;67.75;98516.94;1054736;28;783;-54
2022/01/09 00:19:14;;;;;;;;;;;;;;;13.96;68.18;98524.13;1054829;28;649;-54
2022/01/09 00:20:04;;;;;;;;;;;;;;;13.97;67.98;98527.63;1054747;28;860;-56
2022/01/09 00:20:55;;;;;;;;;;;;;;;13.97;67.43;98517.75;1054524;28;709;-56
2022/01/09 00:21:45;;;;;;;;;;;;;;;13.98;67.97;98526.59;1054103;28;637;-56
2022/01/09 00:22:44;;;;;;;;;;;;;;;13.97;67.38;98520.44;1054233;28;737;-52
2022/01/09 00:23:34;;;;;;;;;;;;;;;13.95;68.22;98517.09;1054159;28;714;-54
2022/01/09 00:24:25;;;;;;;;;;;;;;;13.97;68.44;98533.00;1054139;28;936;-57
2022/01/09 00:25:15;;;;;;;;;;;;;;;13.95;67.57;98527.81;1054109;28;810;-55
2022/01/09 00:26:07;;;;;;;;;;;;;;;13.95;67.81;98535.84;1053615;28;641;-54
2022/01/09 00:26:58;;;;;;;;;;;;;;;13.96;67.50;98548.22;1054262;28;739;-55
2022/01/09 00:27:48;;;;;;;;;;;;;;;13.95;68.01;98549.25;1054227;28;715;-56
2022/01/09 00:28:39;;;;;;;;;;;;;;;13.94;68.14;98536.03;1049072;28;938;-53
2022/01/09 00:29:29;;;;;;;;;;;;;;;13.93;67.88;98545.06;1049160;28;686;-54
2022/01/09 00:30:20;;;;;;;;;;;;;;;13.91;68.41;98550.59;1056716;28;1950;-56
2022/01/09 00:31:10;;;;;;;;;;;;;;;13.89;67.22;98552.59;1057820;28;666;-53
2022/01/09 00:32:00;;;;;;;;;;;;;;;13.88;68.14;98556.28;1057790;28;811;-53
2022/01/09 00:32:51;;;;;;;;;;;;;;;13.88;67.92;98548.25;1057665;28;861;-54
2022/01/09 00:33:41;;;;;;;;;;;;;;;13.86;67.86;98556.47;1058312;28;1118;-51
2022/01/09 00:34:32;;;;;;;;;;;;;;;13.86;68.17;98556.47;1057107;28;744;-54
2022/01/09 00:35:22;;;;;;;;;;;;;;;13.85;67.96;98557.47;1058142;28;1917;-55
2022/01/09 00:36:13;;;;;;;;;;;;;;;13.84;67.85;98552.28;1057112;28;690;-55
2022/01/09 00:37:04;;;;;;;;;;;;;;;13.85;67.65;98553.97;1057710;28;832;-55
2022/01/09 00:37:54;;;;;;;;;;;;;;;13.84;67.27;98561.16;1058315;28;677;-56
2022/01/09 00:38:44;;;;;;;;;;;;;;;13.85;68.23;98562.84;1057119;28;753;-58
2022/01/09 00:39:35;;;;;;;;;;;;;;;13.87;68.45;98558.13;1056676;28;780;-55
2022/01/09 00:40:25;;;;;;;;;;;;;;;13.86;67.00;98556.47;1053651;28;1696;-55
2022/01/09 00:41:16;;;;;;;;;;;;;;;13.87;68.07;98558.13;1054633;28;845;-56
2022/01/09 00:42:06;;;;;;;;;;;;;;;13.88;68.13;98556.28;1054712;28;681;-55
2022/01/09 00:42:57;;;;;;;;;;;;;;;13.89;67.90;98563.31;1054065;28;740;-56
2022/01/09 00:43:47;;;;;;;;;;;;;;;13.87;67.48;98558.13;1054787;28;851;-56
2022/01/09 00:44:37;;;;;;;;;;;;;;;13.89;67.38;98557.97;1054041;28;678;-54
2022/01/09 00:45:28;;;;;;;;;;;;;;;13.89;67.10;98563.31;1054684;28;824;-57
2022/01/09 00:46:18;;;;;;;;;;;;;;;13.90;67.12;98570.34;1054153;28;768;-56
2022/01/09 00:47:09;;;;;;;;;;;;;;;13.89;67.39;98574.03;1054719;28;790;-56
2022/01/09 00:47:59;;;;;;;;;;;;;;;13.88;67.83;98567.00;1050526;28;1334;-53
2022/01/09 00:48:49;;;;;;;;;;;;;;;13.88;67.44;98567.00;1050476;28;2000;-55
2022/01/09 00:49:40;;;;;;;;;;;;;;;13.85;68.30;98570.88;1050389;28;1291;-56
2022/01/09 00:50:30;;;;;;;;;;;;;;;13.84;67.92;98563.00;1050019;28;2092;-57
2022/01/09 00:51:23;;;;;;;;;;;;;;;13.83;68.16;98572.88;1049863;28;826;-57
2022/01/09 00:52:13;;;;;;;;;;;;;;;13.84;67.05;98579.06;1050932;28;744;-56
2022/01/09 00:53:04;;;;;;;;;;;;;;;13.84;67.74;98579.06;1050501;28;621;-56
2022/01/09 00:53:54;;;;;;;;;;;;;;;13.83;67.98;98570.19;1049946;28;801;-54
2022/01/09 00:54:44;;;;;;;;;;;;;;;13.82;67.11;98570.38;1049974;28;754;-57
2022/01/09 00:55:35;;;;;;;;;;;;;;;13.82;67.82;98575.72;1049317;28;825;-56
2022/01/09 00:56:25;;;;;;;;;;;;;;;13.83;67.67;98582.75;1049821;28;951;-55
2022/01/09 00:57:16;;;;;;;;;;;;;;;13.82;67.70;98589.13;1050052;28;747;-56
2022/01/09 00:58:06;;;;;;;;;;;;;;;13.80;67.54;98583.94;1049935;28;716;-55
2022/01/09 00:58:56;;;;;;;;;;;;;;;13.80;67.16;98583.94;1050508;28;717;-57
2022/01/09 00:59:47;;;;;;;;;;;;;;;13.81;67.68;98587.44;1049778;28;796;-56
2022/01/09 01:00:39;;;;;;;;;;;;;;;13.80;67.62;98577.75;1049890;28;775;-56
2022/01/09 01:01:29;;;;;;;;;;;;;;;13.79;67.75;98597.53;1050381;28;666;-58
2022/01/09 01:02:20;;;;;;;;;;;;;;;13.79;67.34;98592.97;1049924;28;662;-58
2022/01/09 01:03:10;;;;;;;;;;;;;;;13.78;66.92;98591.34;1050037;28;664;-55
2022/01/09 01:04:00;;;;;;;;;;;;;;;13.78;67.22;98595.84;1049836;28;805;-56
2022/01/09 01:04:51;;;;;;;;;;;;;;;13.78;67.56;98607.41;1049885;28;697;-57
2022/01/09 01:05:42;;;;;;;;;;;;;;;13.76;67.53;98604.06;1049913;28;748;-56
2022/01/09 01:06:32;;;;;;;;;;;;;;;13.75;67.12;98601.56;1049924;28;652;-56
2022/01/09 01:07:23;;;;;;;;;;;;;;;13.75;67.33;98601.56;1051020;28;635;-56
2022/01/09 01:08:14;;;;;;;;;;;;;;;13.75;67.57;98612.25;1048603;28;832;-53
2022/01/09 01:09:04;;;;;;;;;;;;;;;13.73;68.06;98603.56;1049977;28;666;-54
2022/01/09 01:09:57;;;;;;;;;;;;;;;13.73;68.11;98609.75;1049968;28;786;-53
2022/01/09 01:10:47;;;;;;;;;;;;;;;13.73;67.66;98615.09;1046181;28;2056;-55
2022/01/09 01:11:37;;;;;;;;;;;;;;;13.73;67.97;98617.78;1049137;28;924;-56
2022/01/09 01:12:28;;;;;;;;;;;;;;;13.71;67.07;98617.13;1049908;28;815;-55
2022/01/09 01:13:18;;;;;;;;;;;;;;;13.73;67.13;98633.00;1049824;28;680;-55
2022/01/09 01:14:09;;;;;;;;;;;;;;;13.72;67.77;98620.63;1049955;28;685;-55
2022/01/09 01:14:59;;;;;;;;;;;;;;;13.71;66.92;98621.63;1049888;28;715;-55
2022/01/09 01:15:50;;;;;;;;;;;;;;;13.70;67.92;98630.66;1049948;28;689;-54
2022/01/09 01:16:40;;;;;;;;;;;;;;;13.69;68.03;98631.69;1049799;28;950;-55
2022/01/09 01:17:32;;;;;;;;;;;;;;;13.70;67.24;98628.00;1049923;28;648;-55
2022/01/09 01:18:22;;;;;;;;;;;;;;;13.69;67.89;98635.19;1051177;28;923;-52
2022/01/09 01:19:13;;;;;;;;;;;;;;;13.69;68.09;98637.03;1049953;28;694;-53
2022/01/09 01:20:04;;;;;;;;;;;;;;;13.69;67.98;98634.34;1051038;28;692;-54
2022/01/09 01:20:54;;;;;;;;;;;;;;;13.67;67.69;98634.53;1049908;28;862;-55
2022/01/09 01:21:45;;;;;;;;;;;;;;;13.67;67.71;98639.03;1049828;28;749;-54
2022/01/09 01:22:36;;;;;;;;;;;;;;;13.68;67.90;98638.03;1052012;28;1787;-57
2022/01/09 01:23:26;;;;;;;;;;;;;;;13.69;67.82;98651.25;1050967;28;676;-54
2022/01/09 01:24:18;;;;;;;;;;;;;;;13.67;68.15;98650.59;1049910;28;676;-54
2022/01/09 01:25:08;;;;;;;;;;;;;;;13.68;68.13;98654.09;1048606;28;967;-55
2022/01/09 01:26:01;;;;;;;;;;;;;;;13.66;67.26;98651.59;1049810;28;735;-55
2022/01/09 01:26:52;;;;;;;;;;;;;;;13.67;67.29;98649.75;1049846;28;762;-53
2022/01/09 01:27:42;;;;;;;;;;;;;;;13.66;67.92;98661.47;1049800;28;693;-53
2022/01/09 01:28:32;;;;;;;;;;;;;;;13.66;67.17;98661.47;1051068;28;779;-53
2022/01/09 01:29:23;;;;;;;;;;;;;;;13.65;67.79;98670.50;1049687;28;774;-52
2022/01/09 01:30:13;;;;;;;;;;;;;;;13.65;67.52;98662.47;1049987;28;626;-51
2022/01/09 01:31:04;;;;;;;;;;;;;;;13.63;67.56;98665.31;1049800;28;850;-55
2022/01/09 01:31:54;;;;;;;;;;;;;;;13.63;67.25;98667.16;1049909;28;702;-55
2022/01/09 01:32:44;;;;;;;;;;;;;;;13.61;68.01;98670.03;1050462;28;724;-55
2022/01/09 01:33:35;;;;;;;;;;;;;;;13.60;67.53;98672.88;1050575;28;804;-54
2022/01/09 01:34:25;;;;;;;;;;;;;;;13.60;67.62;98672.88;1053114;28;1873;-54
2022/01/09 01:35:16;;;;;;;;;;;;;;;13.60;66.92;98683.59;1054670;28;1961;-52
2022/01/09 01:36:06;;;;;;;;;;;;;;;13.58;66.83;98672.22;1053851;28;712;-52
2022/01/09 01:36:56;;;;;;;;;;;;;;;13.58;67.75;98677.56;1054962;28;688;-51
2022/01/09 01:37:47;;;;;;;;;;;;;;;13.59;67.67;98681.91;1054733;28;781;-53
2022/01/09 01:38:37;;;;;;;;;;;;;;;13.57;67.98;98689.28;1054825;28;792;-53
2022/01/09 01:39:28;;;;;;;;;;;;;;;13.58;67.03;98682.91;1054809;28;897;-52
2022/01/09 01:40:18;;;;;;;;;;;;;;;13.58;67.08;98697.13;1054893;28;649;-53
2022/01/09 01:41:09;;;;;;;;;;;;;;;13.58;67.68;98698.97;1054861;28;633;-55
2022/01/09 01:41:59;;;;;;;;;;;;;;;13.58;66.92;98699.81;1054808;28;669;-52
2022/01/09 01:42:49;;;;;;;;;;;;;;;13.57;67.23;98702.66;1054854;28;801;-53
2022/01/09 01:43:40;;;;;;;;;;;;;;;13.55;66.91;98703.66;1054798;28;759;-54
2022/01/09 01:44:30;;;;;;;;;;;;;;;13.53;67.59;98702.16;1054862;28;641;-53
2022/01/09 01:45:21;;;;;;;;;;;;;;;13.52;66.95;98701.31;1054868;28;673;-52
2022/01/09 01:46:11;;;;;;;;;;;;;;;13.52;67.10;98709.34;1055456;28;637;-54
2022/01/09 01:47:02;;;;;;;;;;;;;;;13.52;67.28;98711.19;1046253;28;732;-54
2022/01/09 01:47:52;;;;;;;;;;;;;;;13.52;67.40;98709.34;1049589;28;1192;-52
2022/01/09 01:48:43;;;;;;;;;;;;;;;13.53;66.20;98711.00;1054739;28;770;-54
2022/01/09 01:49:33;;;;;;;;;;;;;;;13.55;66.51;98709.00;1054766;28;803;-54
2022/01/09 01:50:24;;;;;;;;;;;;;;;13.55;67.26;98711.69;1053415;28;821;-53
2022/01/09 01:51:14;;;;;;;;;;;;;;;13.57;67.30;98716.03;1053749;28;822;-53
2022/01/09 01:52:04;;;;;;;;;;;;;;;13.55;68.04;98729.56;1054718;28;842;-54
2022/01/09 01:52:56;;;;;;;;;;;;;;;13.54;67.63;98712.69;1053556;28;741;-53
2022/01/09 01:53:47;;;;;;;;;;;;;;;13.54;67.08;98720.72;1054185;28;708;-55
2022/01/09 01:54:37;;;;;;;;;;;;;;;13.52;66.39;98725.41;1054726;28;700;-54
2022/01/09 01:55:29;;;;;;;;;;;;;;;13.50;67.10;98732.75;1053434;28;1906;-54
2022/01/09 01:56:20;;;;;;;;;;;;;;;13.51;67.30;98729.06;1054276;28;898;-54
2022/01/09 01:57:10;;;;;;;;;;;;;;;13.50;66.81;98727.41;1054111;28;630;-54
2022/01/09 01:58:01;;;;;;;;;;;;;;;13.50;66.97;98730.06;1054149;28;799;-54
2022/01/09 01:58:51;;;;;;;;;;;;;;;13.49;66.65;98736.44;1054717;28;711;-53
2022/01/09 01:59:42;;;;;;;;;;;;;;;13.48;67.41;98732.09;1054694;28;815;-50
2022/01/09 02:00:32;;;;;;;;;;;;;;;13.49;66.54;98730.25;1057274;28;1853;-51
2022/01/09 02:01:23;;;;;;;;;;;;;;;13.49;67.93;98739.09;1057092;28;700;-52
2022/01/09 02:02:13;;;;;;;;;;;;;;;13.49;67.84;98732.91;1057789;28;860;-53
2022/01/09 02:03:04;;;;;;;;;;;;;;;13.50;67.29;98735.44;1058946;28;755;-51
2022/01/09 02:03:54;;;;;;;;;;;;;;;13.50;66.92;98732.75;1057303;28;748;-53
2022/01/09 02:04:44;;;;;;;;;;;;;;;13.49;66.94;98733.75;1057613;28;942;-54
2022/01/09 02:05:35;;;;;;;;;;;;;;;13.49;66.79;98735.59;1058393;28;881;-53
2022/01/09 02:06:25;;;;;;;;;;;;;;;13.48;66.81;98734.75;1058873;28;846;-52
2022/01/09 02:07:16;;;;;;;;;;;;;;;13.48;66.87;98737.44;1057767;28;1167;-51
2022/01/09 02:08:06;;;;;;;;;;;;;;;13.48;66.91;98737.44;1058795;28;693;-55
2022/01/09 02:08:57;;;;;;;;;;;;;;;13.48;67.40;98740.13;1058292;28;1151;-53
2022/01/09 02:09:47;;;;;;;;;;;;;;;13.49;67.23;98740.94;1058480;28;707;-53
2022/01/09 02:10:37;;;;;;;;;;;;;;;13.48;66.66;98742.78;1055062;28;1790;-57
2022/01/09 02:11:28;;;;;;;;;;;;;;;13.48;67.32;98736.59;1055193;28;1472;-57
2022/01/09 02:12:18;;;;;;;;;;;;;;;13.48;67.00;98750.81;1055287;28;688;-56
2022/01/09 02:13:09;;;;;;;;;;;;;;;13.47;66.17;98751.81;1055242;28;862;-55
2022/01/09 02:13:59;;;;;;;;;;;;;;;13.47;66.50;98759.84;1055429;28;736;-56
2022/01/09 02:14:49;;;;;;;;;;;;;;;13.46;66.40;98755.50;1055302;28;849;-53
2022/01/09 02:15:43;;;;;;;;;;;;;;;13.45;66.45;98756.50;1055293;28;684;-55
2022/01/09 02:16:35;;;;;;;;;;;;;;;13.43;67.03;98757.69;1056686;28;1683;-52
2022/01/09 02:17:25;;;;;;;;;;;;;;;13.40;67.66;98772.25;1057747;28;892;-54
2022/01/09 02:18:16;;;;;;;;;;;;;;;13.41;66.97;98759.72;1057167;28;772;-55
2022/01/09 02:19:08;;;;;;;;;;;;;;;13.39;66.35;98772.41;1058718;28;932;-53
2022/01/09 02:19:58;;;;;;;;;;;;;;;13.37;66.54;98767.22;1058250;28;751;-51
2022/01/09 02:20:49;;;;;;;;;;;;;;;13.38;68.02;98773.41;1057796;28;725;-52
2022/01/09 02:21:39;;;;;;;;;;;;;;;13.36;67.61;98762.03;1054630;28;701;-54
2022/01/09 02:22:33;;;;;;;;;;;;;;;13.36;67.37;98770.91;1057906;28;2024;-54
2022/01/09 02:23:23;;;;;;;;;;;;;;;13.37;67.91;98775.25;1058212;28;756;-51
2022/01/09 02:24:13;;;;;;;;;;;;;;;13.37;66.07;98775.25;1058422;28;549;-54
2022/01/09 02:25:04;;;;;;;;;;;;;;;13.36;66.40;98778.94;1057638;28;794;-57
2022/01/09 02:25:54;;;;;;;;;;;;;;;13.36;67.06;98773.56;1058514;28;1804;-55
2022/01/09 02:26:45;;;;;;;;;;;;;;;13.36;66.72;98778.94;1057438;28;1071;-55
2022/01/09 02:27:35;;;;;;;;;;;;;;;13.35;66.58;98771.91;1053654;28;868;-55
2022/01/09 02:28:26;;;;;;;;;;;;;;;13.34;67.48;98775.59;1053751;28;761;-55
2022/01/09 02:29:17;;;;;;;;;;;;;;;13.36;66.39;98788.78;1058259;28;725;-54
2022/01/09 02:30:07;;;;;;;;;;;;;;;13.36;67.62;98796.81;1058334;28;1026;-54
2022/01/09 02:30:57;;;;;;;;;;;;;;;13.36;66.73;98788.78;1058825;28;778;-54
2022/01/09 02:31:48;;;;;;;;;;;;;;;13.35;66.12;98790.63;1056353;28;2156;-54
2022/01/09 02:32:38;;;;;;;;;;;;;;;13.35;67.54;98793.31;1057658;28;699;-53
2022/01/09 02:33:29;;;;;;;;;;;;;;;13.35;66.97;98787.97;1058262;28;944;-54
2022/01/09 02:34:19;;;;;;;;;;;;;;;13.35;67.21;98795.16;1058144;28;1769;-55
2022/01/09 02:35:10;;;;;;;;;;;;;;;13.35;66.59;98793.31;1058126;28;1901;-53
2022/01/09 02:36:00;;;;;;;;;;;;;;;13.35;66.40;98787.97;1058264;28;825;-53
2022/01/09 02:36:50;;;;;;;;;;;;;;;13.34;66.65;98802.34;1058347;28;727;-55
2022/01/09 02:37:41;;;;;;;;;;;;;;;13.34;66.78;98802.34;1058110;28;761;-55
2022/01/09 02:38:31;;;;;;;;;;;;;;;13.33;67.62;98789.97;1058722;28;703;-54
2022/01/09 02:39:22;;;;;;;;;;;;;;;13.33;66.37;98806.00;1057588;28;707;-53
2022/01/09 02:40:12;;;;;;;;;;;;;;;13.34;66.81;98813.03;1057633;28;913;-53
2022/01/09 02:41:02;;;;;;;;;;;;;;;13.34;66.48;98813.03;1058630;28;867;-54
2022/01/09 02:41:53;;;;;;;;;;;;;;;13.32;66.38;98812.38;1057449;28;853;-51
2022/01/09 02:42:43;;;;;;;;;;;;;;;13.33;66.45;98813.19;1058210;28;661;-55
2022/01/09 02:43:34;;;;;;;;;;;;;;;13.32;67.40;98815.03;1055177;28;620;-53
2022/01/09 02:44:24;;;;;;;;;;;;;;;13.33;66.41;98822.06;1053232;28;859;-55
2022/01/09 02:45:18;;;;;;;;;;;;;;;13.32;66.66;98820.38;1053880;28;764;-53
2022/01/09 02:46:17;;;;;;;;;;;;;;;13.32;67.03;98828.41;1054581;28;779;-50
2022/01/09 02:47:07;;;;;;;;;;;;;;;13.32;67.27;98823.06;1054094;28;779;-52
2022/01/09 02:48:00;;;;;;;;;;;;;;;13.32;66.61;98823.06;1054025;28;1398;-53
2022/01/09 02:48:51;;;;;;;;;;;;;;;13.32;66.65;98830.25;1054156;28;776;-53
2022/01/09 02:49:47;;;;;;;;;;;;;;;13.32;66.49;98831.09;1053918;28;754;-56
2022/01/09 02:50:50;;;;;;;;;;;;;;;13.32;66.32;98831.09;1053904;28;955;-56
2022/01/09 02:51:40;;;;;;;;;;;;;;;13.32;66.55;98840.94;1053950;28;706;-55
2022/01/09 02:52:34;;;;;;;;;;;;;;;13.30;66.25;98833.09;1053827;28;943;-57
2022/01/09 02:53:26;;;;;;;;;;;;;;;13.29;66.49;98842.13;1053992;28;704;-55
2022/01/09 02:55:26;;;;;;;;;;;;;;;13.26;66.66;98839.75;1054301;28;1965;-56
2022/01/09 02:56:16;;;;;;;;;;;;;;;13.26;67.02;98849.63;1054134;28;672;-56
2022/01/09 02:57:07;;;;;;;;;;;;;;;13.25;66.49;98843.47;1054521;28;645;-58
2022/01/09 02:57:57;;;;;;;;;;;;;;;13.23;66.79;98847.31;1053976;28;695;-57
2022/01/09 02:58:47;;;;;;;;;;;;;;;13.23;65.98;98853.50;1054463;28;840;-57
2022/01/09 02:59:38;;;;;;;;;;;;;;;13.20;67.18;98849.31;1053878;28;730;-56
2022/01/09 03:00:28;;;;;;;;;;;;;;;13.20;66.67;98843.97;1054134;28;723;-53
2022/01/09 03:01:19;;;;;;;;;;;;;;;13.22;66.84;98856.34;1055379;28;1828;-57
2022/01/09 03:02:09;;;;;;;;;;;;;;;13.22;66.79;98859.84;1058200;28;656;-56
2022/01/09 03:02:59;;;;;;;;;;;;;;;13.20;66.56;98861.84;1058626;28;885;-57
2022/01/09 03:03:50;;;;;;;;;;;;;;;13.19;66.37;98857.50;1057482;28;699;-57
2022/01/09 03:04:40;;;;;;;;;;;;;;;13.19;66.64;98868.19;1058602;28;805;-56
2022/01/09 03:05:31;;;;;;;;;;;;;;;13.20;66.49;98873.38;1057454;28;685;-56
2022/01/09 03:06:21;;;;;;;;;;;;;;;13.23;66.84;98874.91;1057628;28;829;-55
2022/01/09 03:07:11;;;;;;;;;;;;;;;13.23;67.09;98866.03;1058556;28;893;-56
2022/01/09 03:08:02;;;;;;;;;;;;;;;13.23;66.48;98874.06;1057364;28;705;-55
2022/01/09 03:08:52;;;;;;;;;;;;;;;13.23;66.53;98880.25;1057103;28;732;-56
2022/01/09 03:09:43;;;;;;;;;;;;;;;13.23;66.69;98877.56;1058104;28;916;-56
2022/01/09 03:10:33;;;;;;;;;;;;;;;13.23;66.92;98880.25;1058143;28;795;-55
2022/01/09 03:11:24;;;;;;;;;;;;;;;13.23;66.74;98880.25;1057790;28;1933;-56
2022/01/09 03:12:15;;;;;;;;;;;;;;;13.23;65.82;98874.06;1057496;28;644;-56
2022/01/09 03:13:06;;;;;;;;;;;;;;;13.24;66.47;98881.91;1058097;28;743;-52
2022/01/09 03:13:56;;;;;;;;;;;;;;;13.24;66.30;98884.59;1055561;28;1863;-52
2022/01/09 03:14:46;;;;;;;;;;;;;;;13.23;66.39;98890.09;1054957;28;671;-56
2022/01/09 03:15:37;;;;;;;;;;;;;;;13.22;66.60;98889.28;1054282;28;1886;-55
2022/01/09 03:16:27;;;;;;;;;;;;;;;13.22;66.87;98889.28;1053885;28;716;-54
2022/01/09 03:17:18;;;;;;;;;;;;;;;13.23;66.83;98904.31;1055193;28;839;-52
2022/01/09 03:18:08;;;;;;;;;;;;;;;13.23;66.05;98898.13;1055057;28;617;-51
2022/01/09 03:18:59;;;;;;;;;;;;;;;13.23;66.67;98898.13;1054450;28;720;-53
2022/01/09 03:19:49;;;;;;;;;;;;;;;13.22;66.53;98899.13;1054940;28;867;-53
2022/01/09 03:20:39;;;;;;;;;;;;;;;13.22;67.29;98899.13;1054500;28;694;-54
2022/01/09 03:21:30;;;;;;;;;;;;;;;13.20;66.84;98897.44;1054441;28;689;-52
2022/01/09 03:22:20;;;;;;;;;;;;;;;13.19;65.88;98898.44;1053785;28;775;-49
2022/01/09 03:23:11;;;;;;;;;;;;;;;13.19;66.55;98911.81;1053816;28;649;-51
2022/01/09 03:24:01;;;;;;;;;;;;;;;13.19;67.21;98908.31;1057361;28;1677;-51
2022/01/09 03:24:52;;;;;;;;;;;;;;;13.19;67.26;98902.97;1058645;28;733;-53
2022/01/09 03:25:42;;;;;;;;;;;;;;;13.18;66.16;98909.31;1057489;28;744;-54
2022/01/09 03:26:33;;;;;;;;;;;;;;;13.18;67.41;98915.50;1057892;28;1055;-54
2022/01/09 03:27:24;;;;;;;;;;;;;;;13.18;66.31;98912.00;1057993;28;728;-56
2022/01/09 03:28:14;;;;;;;;;;;;;;;13.17;66.50;98919.16;1057396;28;980;-54
2022/01/09 03:29:04;;;;;;;;;;;;;;;13.16;65.36;98916.66;1058560;28;633;-54
2022/01/09 03:29:55;;;;;;;;;;;;;;;13.17;66.77;98926.34;1057349;28;753;-52
2022/01/09 03:30:45;;;;;;;;;;;;;;;13.15;66.81;98923.00;1058498;28;765;-54
2022/01/09 03:31:36;;;;;;;;;;;;;;;13.16;66.65;98930.03;1053714;28;818;-54
2022/01/09 03:32:26;;;;;;;;;;;;;;;13.15;65.12;98923.84;1054917;28;874;-56
2022/01/09 03:33:17;;;;;;;;;;;;;;;13.14;65.43;98930.16;1055076;28;689;-54
2022/01/09 03:34:07;;;;;;;;;;;;;;;13.13;65.67;98922.28;1050134;28;854;-52
2022/01/09 03:34:57;;;;;;;;;;;;;;;13.13;66.21;98922.28;1049709;28;679;-56
2022/01/09 03:35:48;;;;;;;;;;;;;;;13.12;65.80;98918.78;1053354;28;730;-56
2022/01/09 03:36:38;;;;;;;;;;;;;;;13.12;66.60;98920.63;1054260;28;786;-56
2022/01/09 03:37:29;;;;;;;;;;;;;;;13.11;66.44;98930.47;1055008;28;636;-56
2022/01/09 03:38:19;;;;;;;;;;;;;;;13.11;65.44;98922.44;1049810;28;786;-53
2022/01/09 03:39:09;;;;;;;;;;;;;;;13.10;66.09;98923.44;1049976;28;685;-53
2022/01/09 03:40:00;;;;;;;;;;;;;;;13.09;66.89;98928.97;1055593;27;749;-53
2022/01/09 03:40:50;;;;;;;;;;;;;;;13.10;65.99;98933.31;1054967;28;719;-52
2022/01/09 03:41:41;;;;;;;;;;;;;;;13.09;66.93;98926.28;1053565;28;1013;-52
2022/01/09 03:42:31;;;;;;;;;;;;;;;13.08;66.54;98936.16;1053501;28;751;-53
2022/01/09 03:43:21;;;;;;;;;;;;;;;13.08;66.83;98936.16;1053831;28;679;-52
2022/01/09 03:44:12;;;;;;;;;;;;;;;13.06;65.53;98937.34;1053782;28;642;-54
2022/01/09 03:45:02;;;;;;;;;;;;;;;13.05;66.34;98946.34;1054445;28;754;-53
2022/01/09 03:45:53;;;;;;;;;;;;;;;13.05;65.89;98941.00;1054464;28;755;-55
2022/01/09 03:46:43;;;;;;;;;;;;;;;13.06;66.01;98954.22;1053575;28;812;-55
2022/01/09 03:47:35;;;;;;;;;;;;;;;13.06;65.60;98945.34;1054137;28;2118;-53
2022/01/09 03:48:25;;;;;;;;;;;;;;;13.07;66.01;98953.22;1054231;28;715;-53
2022/01/09 03:49:16;;;;;;;;;;;;;;;13.07;66.37;98961.25;1053679;28;742;-53
2022/01/09 03:50:06;;;;;;;;;;;;;;;13.07;66.56;98955.88;1054402;28;695;-53
2022/01/09 03:50:56;;;;;;;;;;;;;;;13.07;66.06;98957.72;1054451;28;1890;-53
2022/01/09 03:51:50;;;;;;;;;;;;;;;13.06;65.35;98953.38;1054381;28;735;-52
2022/01/09 03:52:41;;;;;;;;;;;;;;;13.05;65.09;98959.72;1054330;28;704;-51
2022/01/09 03:53:32;;;;;;;;;;;;;;;13.04;66.12;98950.88;1054313;28;771;-55
2022/01/09 03:54:22;;;;;;;;;;;;;;;13.03;66.01;98957.22;1053763;28;689;-51
2022/01/09 03:55:13;;;;;;;;;;;;;;;13.04;65.58;98952.69;1054571;28;1913;-53
2022/01/09 03:56:03;;;;;;;;;;;;;;;13.04;66.37;98960.72;1054754;28;629;-52
2022/01/09 03:56:54;;;;;;;;;;;;;;;13.05;65.73;98957.03;1054883;28;715;-50
2022/01/09 03:57:44;;;;;;;;;;;;;;;13.05;65.68;98962.41;1054843;28;763;-52
2022/01/09 03:58:36;;;;;;;;;;;;;;;13.04;65.74;98955.38;1053713;28;626;-51
2022/01/09 03:59:26;;;;;;;;;;;;;;;13.04;65.82;98966.06;1053627;28;871;-51
2022/01/09 04:00:17;;;;;;;;;;;;;;;13.04;66.30;98966.91;1054902;28;720;-51
2022/01/09 04:01:08;;;;;;;;;;;;;;;13.06;64.80;98972.94;1056626;28;1893;-51
2022/01/09 04:01:58;;;;;;;;;;;;;;;13.05;65.61;98975.75;1056958;28;723;-52
2022/01/09 04:02:49;;;;;;;;;;;;;;;13.04;65.31;98974.09;1057295;28;688;-53
2022/01/09 04:03:39;;;;;;;;;;;;;;;13.02;65.25;98995.63;1058191;28;983;-53
2022/01/09 04:04:30;;;;;;;;;;;;;;;13.00;66.27;98983.41;1057238;28;918;-53
2022/01/09 04:05:20;;;;;;;;;;;;;;;12.98;65.76;98980.06;1057840;28;852;-52
2022/01/09 04:06:11;;;;;;;;;;;;;;;12.98;65.37;98983.59;1058521;28;672;-49
2022/01/09 04:07:01;;;;;;;;;;;;;;;12.97;66.32;98981.06;1057887;28;717;-53
2022/01/09 04:07:52;;;;;;;;;;;;;;;12.98;66.79;98985.41;1057919;28;788;-48
2022/01/09 04:08:42;;;;;;;;;;;;;;;12.98;66.77;98982.75;1057879;28;807;-50
2022/01/09 04:09:40;;;;;;;;;;;;;;;12.98;66.10;98990.75;1057918;28;937;-52
2022/01/09 04:10:32;;;;;;;;;;;;;;;12.98;66.36;98985.41;1057837;28;720;-49
2022/01/09 04:11:26;;;;;;;;;;;;;;;12.97;65.60;98989.94;1057811;28;1326;-48
2022/01/09 04:12:31;;;;;;;;;;;;;;;12.96;65.70;98990.09;1058030;28;649;-51
2022/01/09 04:13:22;;;;;;;;;;;;;;;12.96;65.88;98992.75;1057093;28;1982;-52
2022/01/09 04:14:12;;;;;;;;;;;;;;;12.93;66.00;98991.25;1057252;28;740;-49
2022/01/09 04:15:03;;;;;;;;;;;;;;;12.95;66.61;98993.75;1058048;28;1956;-49
2022/01/09 04:15:53;;;;;;;;;;;;;;;12.95;66.36;98991.91;1056712;28;814;-49
2022/01/09 04:16:44;;;;;;;;;;;;;;;12.95;65.48;98999.09;1058283;28;631;-53
2022/01/09 04:17:43;;;;;;;;;;;;;;;12.95;65.69;98999.94;1057219;28;791;-50
2022/01/09 04:18:33;;;;;;;;;;;;;;;12.93;66.45;98995.75;1057811;28;948;-51
2022/01/09 04:19:23;;;;;;;;;;;;;;;12.92;65.43;98996.75;1057987;28;700;-51
2022/01/09 04:20:14;;;;;;;;;;;;;;;12.91;65.85;99003.09;1057755;28;942;-53
2022/01/09 04:21:04;;;;;;;;;;;;;;;12.90;66.04;98996.09;1057791;28;1563;-51
2022/01/09 04:21:55;;;;;;;;;;;;;;;12.91;65.35;99011.09;1057979;28;719;-49
2022/01/09 04:22:45;;;;;;;;;;;;;;;12.91;65.90;99003.91;1057818;28;700;-49
2022/01/09 04:23:35;;;;;;;;;;;;;;;12.90;65.58;99012.94;1053439;28;826;-49
2022/01/09 04:24:26;;;;;;;;;;;;;;;12.90;66.31;99004.09;1053856;28;857;-49
2022/01/09 04:25:16;;;;;;;;;;;;;;;12.91;66.28;99019.13;1057671;28;1796;-49
2022/01/09 04:26:07;;;;;;;;;;;;;;;12.91;65.99;99019.97;1057707;28;720;-51
2022/01/09 04:26:57;;;;;;;;;;;;;;;12.92;65.81;99015.44;1057177;28;777;-53
2022/01/09 04:27:47;;;;;;;;;;;;;;;12.93;66.03;99023.31;1058343;28;764;-53
2022/01/09 04:28:38;;;;;;;;;;;;;;;12.93;66.01;99014.47;1057013;28;846;-52
2022/01/09 04:29:28;;;;;;;;;;;;;;;12.93;65.35;99017.13;1058153;28;663;-50
2022/01/09 04:30:19;;;;;;;;;;;;;;;12.93;65.80;99020.66;1057184;28;920;-51
2022/01/09 04:31:09;;;;;;;;;;;;;;;12.92;65.55;99028.81;1057894;28;688;-52
2022/01/09 04:32:00;;;;;;;;;;;;;;;12.92;64.95;99032.34;1057852;28;700;-54